sensor_id;sensor_type;location;lat;lon;timestamp;temperature;humidity
4960;DHT22;2495;48.200;11.532;2023-06-14T00:03:47;18.60;45.40
4960;DHT22;2495;48.200;11.532;2023-06-14T00:08:48;18.60;46.10
4960;DHT22;2495;48.200;11.532;2023-06-14T00:13:49;18.50;46.70
4960;DHT22;2495;48.200;11.532;2023-06-14T00:18:51;18.40;47.10
4960;DHT22;2495;48.200;11.532;2023-06-14T00:23:55;18.30;47.60
4960;DHT22;2495;48.200;11.532;2023-06-14T00:28:56;18.20;48.50
4960;DHT22;2495;48.200;11.532;2023-06-14T00:33:58;18.10;49.00
4960;DHT22;2495;48.200;11.532;2023-06-14T00:38:59;18.10;49.70
4960;DHT22;2495;48.200;11.532;2023-06-14T00:44:01;18.20;49.50
4960;DHT22;2495;48.200;11.532;2023-06-14T00:49:03;18.10;50.00
4960;DHT22;2495;48.200;11.532;2023-06-14T00:54:04;18.00;49.70
4960;DHT22;2495;48.200;11.532;2023-06-14T00:59:06;17.90;49.90
4960;DHT22;2495;48.200;11.532;2023-06-14T01:04:07;17.80;50.40
4960;DHT22;2495;48.200;11.532;2023-06-14T01:14:25;17.50;52.20
4960;DHT22;2495;48.200;11.532;2023-06-14T01:19:26;17.40;52.50
4960;DHT22;2495;48.200;11.532;2023-06-14T01:24:27;17.30;52.40
4960;DHT22;2495;48.200;11.532;2023-06-14T01:29:29;17.30;52.30
4960;DHT22;2495;48.200;11.532;2023-06-14T01:34:30;17.20;52.20
4960;DHT22;2495;48.200;11.532;2023-06-14T01:39:31;17.10;52.20
4960;DHT22;2495;48.200;11.532;2023-06-14T01:44:32;17.10;52.20
4960;DHT22;2495;48.200;11.532;2023-06-14T01:49:34;17.10;52.30
4960;DHT22;2495;48.200;11.532;2023-06-14T01:54:35;17.00;52.30
4960;DHT22;2495;48.200;11.532;2023-06-14T01:59:36;17.00;52.60
4960;DHT22;2495;48.200;11.532;2023-06-14T02:04:38;16.90;52.80
4960;DHT22;2495;48.200;11.532;2023-06-14T02:09:40;16.90;53.30
4960;DHT22;2495;48.200;11.532;2023-06-14T02:14:41;17.00;53.70
4960;DHT22;2495;48.200;11.532;2023-06-14T02:19:42;17.00;53.50
4960;DHT22;2495;48.200;11.532;2023-06-14T02:24:44;16.90;53.50
4960;DHT22;2495;48.200;11.532;2023-06-14T02:29:45;16.80;53.90
4960;DHT22;2495;48.200;11.532;2023-06-14T02:34:46;16.70;54.70
4960;DHT22;2495;48.200;11.532;2023-06-14T02:39:49;16.50;55.90
4960;DHT22;2495;48.200;11.532;2023-06-14T02:44:50;16.50;55.60
4960;DHT22;2495;48.200;11.532;2023-06-14T02:49:51;16.40;55.50
4960;DHT22;2495;48.200;11.532;2023-06-14T02:54:53;16.20;55.80
4960;DHT22;2495;48.200;11.532;2023-06-14T02:59:54;16.10;56.90
4960;DHT22;2495;48.200;11.532;2023-06-14T03:04:55;16.10;56.10
4960;DHT22;2495;48.200;11.532;2023-06-14T03:09:56;16.00;56.10
4960;DHT22;2495;48.200;11.532;2023-06-14T03:14:58;16.00;57.00
4960;DHT22;2495;48.200;11.532;2023-06-14T03:19:59;16.10;56.70
4960;DHT22;2495;48.200;11.532;2023-06-14T03:25:00;16.30;55.60
4960;DHT22;2495;48.200;11.532;2023-06-14T03:30:02;16.10;54.90
4960;DHT22;2495;48.200;11.532;2023-06-14T03:35:03;16.00;54.70
4960;DHT22;2495;48.200;11.532;2023-06-14T03:40:05;15.90;55.70
4960;DHT22;2495;48.200;11.532;2023-06-14T03:45:07;16.10;55.20
4960;DHT22;2495;48.200;11.532;2023-06-14T03:50:09;16.10;55.80
4960;DHT22;2495;48.200;11.532;2023-06-14T03:55:10;16.30;54.60
4960;DHT22;2495;48.200;11.532;2023-06-14T04:00:12;16.30;54.20
4960;DHT22;2495;48.200;11.532;2023-06-14T04:05:13;16.20;54.00
4960;DHT22;2495;48.200;11.532;2023-06-14T04:10:15;16.20;53.90
4960;DHT22;2495;48.200;11.532;2023-06-14T04:15:16;16.10;53.70
4960;DHT22;2495;48.200;11.532;2023-06-14T04:20:17;16.20;53.50
4960;DHT22;2495;48.200;11.532;2023-06-14T04:25:19;16.20;52.80
4960;DHT22;2495;48.200;11.532;2023-06-14T04:30:20;16.30;53.10
4960;DHT22;2495;48.200;11.532;2023-06-14T04:35:21;16.40;53.10
4960;DHT22;2495;48.200;11.532;2023-06-14T04:40:23;16.50;52.90
4960;DHT22;2495;48.200;11.532;2023-06-14T04:45:24;16.60;52.90
4960;DHT22;2495;48.200;11.532;2023-06-14T04:50:26;16.70;52.90
4960;DHT22;2495;48.200;11.532;2023-06-14T04:55:27;16.90;52.70
4960;DHT22;2495;48.200;11.532;2023-06-14T05:00:28;17.00;52.60
4960;DHT22;2495;48.200;11.532;2023-06-14T05:05:30;17.20;52.40
4960;DHT22;2495;48.200;11.532;2023-06-14T05:10:31;17.40;52.10
4960;DHT22;2495;48.200;11.532;2023-06-14T05:15:35;17.60;51.70
4960;DHT22;2495;48.200;11.532;2023-06-14T05:20:37;17.80;51.40
4960;DHT22;2495;48.200;11.532;2023-06-14T05:25:38;17.90;50.70
4960;DHT22;2495;48.200;11.532;2023-06-14T05:30:40;18.10;50.20
4960;DHT22;2495;48.200;11.532;2023-06-14T05:35:41;18.30;50.80
4960;DHT22;2495;48.200;11.532;2023-06-14T05:40:43;18.40;50.70
4960;DHT22;2495;48.200;11.532;2023-06-14T05:45:44;18.60;50.50
4960;DHT22;2495;48.200;11.532;2023-06-14T05:50:46;18.80;51.10
4960;DHT22;2495;48.200;11.532;2023-06-14T05:55:47;19.00;50.40
4960;DHT22;2495;48.200;11.532;2023-06-14T06:00:50;19.10;50.40
4960;DHT22;2495;48.200;11.532;2023-06-14T06:05:51;19.10;49.70
4960;DHT22;2495;48.200;11.532;2023-06-14T06:10:53;19.50;49.00
4960;DHT22;2495;48.200;11.532;2023-06-14T06:15:54;19.50;48.80
4960;DHT22;2495;48.200;11.532;2023-06-14T06:20:56;19.60;48.30
4960;DHT22;2495;48.200;11.532;2023-06-14T06:25:57;19.80;48.20
4960;DHT22;2495;48.200;11.532;2023-06-14T06:30:58;19.80;47.70
4960;DHT22;2495;48.200;11.532;2023-06-14T06:36:03;20.10;47.60
4960;DHT22;2495;48.200;11.532;2023-06-14T06:41:05;20.10;47.20
4960;DHT22;2495;48.200;11.532;2023-06-14T06:46:06;20.20;46.90
4960;DHT22;2495;48.200;11.532;2023-06-14T06:51:10;20.40;46.40
4960;DHT22;2495;48.200;11.532;2023-06-14T06:56:10;20.90;46.50
4960;DHT22;2495;48.200;11.532;2023-06-14T07:01:16;21.20;45.60
4960;DHT22;2495;48.200;11.532;2023-06-14T07:06:18;21.40;44.30
4960;DHT22;2495;48.200;11.532;2023-06-14T07:11:19;21.50;45.00
4960;DHT22;2495;48.200;11.532;2023-06-14T07:16:21;21.70;44.00
4960;DHT22;2495;48.200;11.532;2023-06-14T07:21:22;22.00;42.90
4960;DHT22;2495;48.200;11.532;2023-06-14T07:26:27;22.40;43.10
4960;DHT22;2495;48.200;11.532;2023-06-14T07:31:31;22.90;42.60
4960;DHT22;2495;48.200;11.532;2023-06-14T07:36:32;23.30;41.50
4960;DHT22;2495;48.200;11.532;2023-06-14T07:41:33;23.50;41.30
4960;DHT22;2495;48.200;11.532;2023-06-14T07:46:35;24.00;40.80
4960;DHT22;2495;48.200;11.532;2023-06-14T07:51:36;24.50;40.60
4960;DHT22;2495;48.200;11.532;2023-06-14T07:56:37;24.90;39.70
4960;DHT22;2495;48.200;11.532;2023-06-14T08:01:39;25.30;39.30
4960;DHT22;2495;48.200;11.532;2023-06-14T08:06:41;25.80;38.10
4960;DHT22;2495;48.200;11.532;2023-06-14T08:11:42;26.20;37.00
4960;DHT22;2495;48.200;11.532;2023-06-14T08:16:44;26.50;35.50
4960;DHT22;2495;48.200;11.532;2023-06-14T08:21:46;26.50;35.40
4960;DHT22;2495;48.200;11.532;2023-06-14T08:26:47;26.60;34.60
4960;DHT22;2495;48.200;11.532;2023-06-14T08:31:48;26.90;34.30
4960;DHT22;2495;48.200;11.532;2023-06-14T08:36:50;27.10;33.40
4960;DHT22;2495;48.200;11.532;2023-06-14T08:41:51;27.60;33.10
4960;DHT22;2495;48.200;11.532;2023-06-14T08:46:52;27.80;31.90
4960;DHT22;2495;48.200;11.532;2023-06-14T08:51:58;28.10;31.30
4960;DHT22;2495;48.200;11.532;2023-06-14T08:56:58;28.70;31.20
4960;DHT22;2495;48.200;11.532;2023-06-14T09:01:59;29.30;30.20
4960;DHT22;2495;48.200;11.532;2023-06-14T09:07:02;29.40;29.70
4960;DHT22;2495;48.200;11.532;2023-06-14T09:12:03;29.40;29.60
4960;DHT22;2495;48.200;11.532;2023-06-14T09:17:06;29.60;28.10
4960;DHT22;2495;48.200;11.532;2023-06-14T09:22:07;29.60;28.10
4960;DHT22;2495;48.200;11.532;2023-06-14T09:27:08;29.80;27.50
4960;DHT22;2495;48.200;11.532;2023-06-14T09:32:10;30.20;27.00
4960;DHT22;2495;48.200;11.532;2023-06-14T09:37:11;30.30;26.70
4960;DHT22;2495;48.200;11.532;2023-06-14T09:42:19;30.00;27.10
4960;DHT22;2495;48.200;11.532;2023-06-14T09:47:23;30.50;28.10
4960;DHT22;2495;48.200;11.532;2023-06-14T09:52:24;31.10;26.90
4960;DHT22;2495;48.200;11.532;2023-06-14T09:57:26;31.30;26.50
4960;DHT22;2495;48.200;11.532;2023-06-14T10:02:36;31.90;27.30
4960;DHT22;2495;48.200;11.532;2023-06-14T10:07:55;31.90;27.30
4960;DHT22;2495;48.200;11.532;2023-06-14T10:12:54;31.70;26.80
4960;DHT22;2495;48.200;11.532;2023-06-14T10:17:56;31.60;27.20
4960;DHT22;2495;48.200;11.532;2023-06-14T10:23:01;31.50;27.00
4960;DHT22;2495;48.200;11.532;2023-06-14T10:28:17;31.60;25.80
4960;DHT22;2495;48.200;11.532;2023-06-14T10:33:20;31.60;25.90
4960;DHT22;2495;48.200;11.532;2023-06-14T10:38:21;31.70;25.80
4960;DHT22;2495;48.200;11.532;2023-06-14T10:43:23;32.00;25.80
4960;DHT22;2495;48.200;11.532;2023-06-14T10:48:29;32.20;25.40
4960;DHT22;2495;48.200;11.532;2023-06-14T10:53:39;32.00;25.50
4960;DHT22;2495;48.200;11.532;2023-06-14T10:58:32;32.40;24.60
4960;DHT22;2495;48.200;11.532;2023-06-14T11:03:41;32.50;24.60
4960;DHT22;2495;48.200;11.532;2023-06-14T11:14:11;31.70;25.10
4960;DHT22;2495;48.200;11.532;2023-06-14T11:19:12;31.30;24.80
4960;DHT22;2495;48.200;11.532;2023-06-14T11:24:16;30.80;25.20
4960;DHT22;2495;48.200;11.532;2023-06-14T11:29:19;31.00;25.60
4960;DHT22;2495;48.200;11.532;2023-06-14T11:34:19;31.40;25.80
4960;DHT22;2495;48.200;11.532;2023-06-14T11:39:24;31.60;25.30
4960;DHT22;2495;48.200;11.532;2023-06-14T11:44:32;31.50;25.50
4960;DHT22;2495;48.200;11.532;2023-06-14T11:49:36;31.20;25.50
4960;DHT22;2495;48.200;11.532;2023-06-14T11:54:38;32.20;25.50
4960;DHT22;2495;48.200;11.532;2023-06-14T11:59:39;32.30;25.10
4960;DHT22;2495;48.200;11.532;2023-06-14T12:04:41;29.60;27.20
4960;DHT22;2495;48.200;11.532;2023-06-14T12:09:43;29.60;27.10
4960;DHT22;2495;48.200;11.532;2023-06-14T12:14:43;30.30;26.70
4960;DHT22;2495;48.200;11.532;2023-06-14T12:19:45;29.30;27.70
4960;DHT22;2495;48.200;11.532;2023-06-14T12:24:46;28.40;27.90
4960;DHT22;2495;48.200;11.532;2023-06-14T12:29:47;27.80;27.70
4960;DHT22;2495;48.200;11.532;2023-06-14T12:34:49;28.40;27.40
4960;DHT22;2495;48.200;11.532;2023-06-14T12:39:50;29.00;26.60
4960;DHT22;2495;48.200;11.532;2023-06-14T12:44:51;29.10;26.80
4960;DHT22;2495;48.200;11.532;2023-06-14T12:49:52;29.20;27.00
4960;DHT22;2495;48.200;11.532;2023-06-14T12:54:54;29.20;26.70
4960;DHT22;2495;48.200;11.532;2023-06-14T12:59:55;29.40;27.00
4960;DHT22;2495;48.200;11.532;2023-06-14T13:04:56;29.00;27.00
4960;DHT22;2495;48.200;11.532;2023-06-14T13:09:58;28.70;26.80
4960;DHT22;2495;48.200;11.532;2023-06-14T13:15:00;28.70;26.90
4960;DHT22;2495;48.200;11.532;2023-06-14T13:20:01;28.70;27.10
4960;DHT22;2495;48.200;11.532;2023-06-14T13:25:03;29.00;27.70
4960;DHT22;2495;48.200;11.532;2023-06-14T13:30:05;28.90;27.80
4960;DHT22;2495;48.200;11.532;2023-06-14T13:35:07;28.30;28.60
4960;DHT22;2495;48.200;11.532;2023-06-14T13:40:08;28.10;28.70
4960;DHT22;2495;48.200;11.532;2023-06-14T13:45:11;28.50;28.30
4960;DHT22;2495;48.200;11.532;2023-06-14T13:50:13;28.70;27.80
4960;DHT22;2495;48.200;11.532;2023-06-14T13:55:14;29.30;27.40
4960;DHT22;2495;48.200;11.532;2023-06-14T14:00:16;29.10;27.40
4960;DHT22;2495;48.200;11.532;2023-06-14T14:05:18;28.30;27.50
4960;DHT22;2495;48.200;11.532;2023-06-14T14:10:19;27.80;27.80
4960;DHT22;2495;48.200;11.532;2023-06-14T14:15:20;27.60;28.20
4960;DHT22;2495;48.200;11.532;2023-06-14T14:20:21;27.30;28.50
4960;DHT22;2495;48.200;11.532;2023-06-14T14:25:23;27.60;28.30
4960;DHT22;2495;48.200;11.532;2023-06-14T14:30:25;28.50;28.30
4960;DHT22;2495;48.200;11.532;2023-06-14T14:35:26;28.50;28.00
4960;DHT22;2495;48.200;11.532;2023-06-14T14:40:28;27.30;29.30
4960;DHT22;2495;48.200;11.532;2023-06-14T14:45:30;27.30;28.70
4960;DHT22;2495;48.200;11.532;2023-06-14T14:50:32;27.30;28.70
4960;DHT22;2495;48.200;11.532;2023-06-14T14:55:33;27.90;28.50
4960;DHT22;2495;48.200;11.532;2023-06-14T15:00:34;28.50;28.10
4960;DHT22;2495;48.200;11.532;2023-06-14T15:05:36;28.80;28.20
4960;DHT22;2495;48.200;11.532;2023-06-14T15:10:39;29.00;27.70
4960;DHT22;2495;48.200;11.532;2023-06-14T15:15:41;29.10;27.80
4960;DHT22;2495;48.200;11.532;2023-06-14T15:20:43;29.10;27.60
4960;DHT22;2495;48.200;11.532;2023-06-14T15:25:45;29.00;27.50
4960;DHT22;2495;48.200;11.532;2023-06-14T15:30:46;29.00;27.80
4960;DHT22;2495;48.200;11.532;2023-06-14T15:35:47;28.80;27.50
4960;DHT22;2495;48.200;11.532;2023-06-14T15:40:48;28.20;27.50
4960;DHT22;2495;48.200;11.532;2023-06-14T15:45:50;27.50;27.90
4960;DHT22;2495;48.200;11.532;2023-06-14T15:50:51;27.00;28.50
4960;DHT22;2495;48.200;11.532;2023-06-14T15:55:53;26.70;29.00
4960;DHT22;2495;48.200;11.532;2023-06-14T16:00:54;26.60;30.00
4960;DHT22;2495;48.200;11.532;2023-06-14T16:05:55;26.30;30.70
4960;DHT22;2495;48.200;11.532;2023-06-14T16:10:57;26.20;31.00
4960;DHT22;2495;48.200;11.532;2023-06-14T16:15:58;25.90;31.20
4960;DHT22;2495;48.200;11.532;2023-06-14T16:21:00;26.00;31.60
4960;DHT22;2495;48.200;11.532;2023-06-14T16:26:01;25.80;31.40
4960;DHT22;2495;48.200;11.532;2023-06-14T16:31:02;25.70;31.60
4960;DHT22;2495;48.200;11.532;2023-06-14T16:36:04;25.70;31.70
4960;DHT22;2495;48.200;11.532;2023-06-14T16:41:05;25.80;31.70
4960;DHT22;2495;48.200;11.532;2023-06-14T16:46:06;25.80;31.90
4960;DHT22;2495;48.200;11.532;2023-06-14T16:51:08;25.90;31.10
4960;DHT22;2495;48.200;11.532;2023-06-14T16:56:09;25.80;31.70
4960;DHT22;2495;48.200;11.532;2023-06-14T17:01:11;25.70;32.30
4960;DHT22;2495;48.200;11.532;2023-06-14T17:06:12;25.60;32.60
4960;DHT22;2495;48.200;11.532;2023-06-14T17:11:13;25.50;32.80
4960;DHT22;2495;48.200;11.532;2023-06-14T17:16:14;25.30;32.90
4960;DHT22;2495;48.200;11.532;2023-06-14T17:21:16;25.20;33.00
4960;DHT22;2495;48.200;11.532;2023-06-14T17:26:17;25.10;33.30
4960;DHT22;2495;48.200;11.532;2023-06-14T17:31:19;25.00;34.20
4960;DHT22;2495;48.200;11.532;2023-06-14T17:36:20;24.90;35.10
4960;DHT22;2495;48.200;11.532;2023-06-14T17:41:21;24.80;35.40
4960;DHT22;2495;48.200;11.532;2023-06-14T17:46:23;24.70;36.20
4960;DHT22;2495;48.200;11.532;2023-06-14T17:51:24;24.60;35.10
4960;DHT22;2495;48.200;11.532;2023-06-14T17:56:26;24.60;35.20
4960;DHT22;2495;48.200;11.532;2023-06-14T18:01:27;24.60;35.10
4960;DHT22;2495;48.200;11.532;2023-06-14T18:06:28;24.60;35.00
4960;DHT22;2495;48.200;11.532;2023-06-14T18:11:29;24.60;35.10
4960;DHT22;2495;48.200;11.532;2023-06-14T18:16:31;24.50;35.30
4960;DHT22;2495;48.200;11.532;2023-06-14T18:21:32;24.50;35.60
4960;DHT22;2495;48.200;11.532;2023-06-14T18:26:34;24.50;35.90
4960;DHT22;2495;48.200;11.532;2023-06-14T18:31:35;24.50;35.20
4960;DHT22;2495;48.200;11.532;2023-06-14T18:36:37;24.50;35.20
4960;DHT22;2495;48.200;11.532;2023-06-14T18:41:38;24.40;35.50
4960;DHT22;2495;48.200;11.532;2023-06-14T18:46:39;24.30;35.90
4960;DHT22;2495;48.200;11.532;2023-06-14T18:51:41;24.20;36.20
4960;DHT22;2495;48.200;11.532;2023-06-14T18:56:42;24.20;36.30
4960;DHT22;2495;48.200;11.532;2023-06-14T19:01:43;24.10;36.60
4960;DHT22;2495;48.200;11.532;2023-06-14T19:06:45;24.00;36.70
4960;DHT22;2495;48.200;11.532;2023-06-14T19:11:46;23.90;36.90
4960;DHT22;2495;48.200;11.532;2023-06-14T19:16:47;23.80;37.00
4960;DHT22;2495;48.200;11.532;2023-06-14T19:21:49;23.80;37.30
4960;DHT22;2495;48.200;11.532;2023-06-14T19:26:50;23.70;37.40
4960;DHT22;2495;48.200;11.532;2023-06-14T19:31:52;23.70;38.20
4960;DHT22;2495;48.200;11.532;2023-06-14T19:36:53;23.60;38.20
4960;DHT22;2495;48.200;11.532;2023-06-14T19:41:54;23.50;37.70
4960;DHT22;2495;48.200;11.532;2023-06-14T19:46:56;23.50;38.60
4960;DHT22;2495;48.200;11.532;2023-06-14T19:51:57;23.40;38.20
4960;DHT22;2495;48.200;11.532;2023-06-14T19:56:59;23.30;38.70
4960;DHT22;2495;48.200;11.532;2023-06-14T20:02:00;23.20;39.10
4960;DHT22;2495;48.200;11.532;2023-06-14T20:07:02;23.10;39.20
4960;DHT22;2495;48.200;11.532;2023-06-14T20:12:04;22.90;39.50
4960;DHT22;2495;48.200;11.532;2023-06-14T20:17:06;22.80;40.70
4960;DHT22;2495;48.200;11.532;2023-06-14T20:22:08;22.70;41.00
4960;DHT22;2495;48.200;11.532;2023-06-14T20:27:09;22.70;40.20
4960;DHT22;2495;48.200;11.532;2023-06-14T20:32:11;22.60;41.60
4960;DHT22;2495;48.200;11.532;2023-06-14T20:37:15;22.50;41.30
4960;DHT22;2495;48.200;11.532;2023-06-14T20:42:20;22.40;41.60
4960;DHT22;2495;48.200;11.532;2023-06-14T20:47:22;22.30;41.70
4960;DHT22;2495;48.200;11.532;2023-06-14T20:52:23;22.10;42.00
4960;DHT22;2495;48.200;11.532;2023-06-14T20:57:25;22.10;42.10
4960;DHT22;2495;48.200;11.532;2023-06-14T21:02:29;22.10;42.80
4960;DHT22;2495;48.200;11.532;2023-06-14T21:07:31;22.00;42.90
4960;DHT22;2495;48.200;11.532;2023-06-14T21:12:36;21.90;43.10
4960;DHT22;2495;48.200;11.532;2023-06-14T21:17:38;21.80;43.40
4960;DHT22;2495;48.200;11.532;2023-06-14T21:22:40;21.70;43.30
4960;DHT22;2495;48.200;11.532;2023-06-14T21:27:42;21.60;43.00
4960;DHT22;2495;48.200;11.532;2023-06-14T21:32:46;21.60;43.80
4960;DHT22;2495;48.200;11.532;2023-06-14T21:37:47;21.50;43.80
4960;DHT22;2495;48.200;11.532;2023-06-14T21:42:49;21.40;44.10
4960;DHT22;2495;48.200;11.532;2023-06-14T21:47:50;21.50;44.40
4960;DHT22;2495;48.200;11.532;2023-06-14T21:52:52;21.40;44.70
4960;DHT22;2495;48.200;11.532;2023-06-14T21:57:53;21.40;44.60
4960;DHT22;2495;48.200;11.532;2023-06-14T22:02:55;21.30;44.80
4960;DHT22;2495;48.200;11.532;2023-06-14T22:07:56;21.20;45.10
4960;DHT22;2495;48.200;11.532;2023-06-14T22:12:58;21.20;45.40
4960;DHT22;2495;48.200;11.532;2023-06-14T22:17:59;21.20;45.70
4960;DHT22;2495;48.200;11.532;2023-06-14T22:23:01;21.10;45.90
4960;DHT22;2495;48.200;11.532;2023-06-14T22:28:05;21.00;46.50
4960;DHT22;2495;48.200;11.532;2023-06-14T22:33:07;20.90;46.60
4960;DHT22;2495;48.200;11.532;2023-06-14T22:38:11;20.80;46.90
4960;DHT22;2495;48.200;11.532;2023-06-14T22:43:16;20.80;47.10
4960;DHT22;2495;48.200;11.532;2023-06-14T22:48:17;20.80;47.10
4960;DHT22;2495;48.200;11.532;2023-06-14T22:53:18;20.70;47.50
4960;DHT22;2495;48.200;11.532;2023-06-14T22:58:20;20.60;47.60
4960;DHT22;2495;48.200;11.532;2023-06-14T23:03:21;20.50;48.00
4960;DHT22;2495;48.200;11.532;2023-06-14T23:08:22;20.50;48.10
4960;DHT22;2495;48.200;11.532;2023-06-14T23:13:24;20.40;48.20
4960;DHT22;2495;48.200;11.532;2023-06-14T23:18:25;20.40;48.50
4960;DHT22;2495;48.200;11.532;2023-06-14T23:23:27;20.30;48.60
4960;DHT22;2495;48.200;11.532;2023-06-14T23:28:28;20.30;48.60
4960;DHT22;2495;48.200;11.532;2023-06-14T23:33:30;20.30;48.90
4960;DHT22;2495;48.200;11.532;2023-06-14T23:38:32;20.10;49.60
4960;DHT22;2495;48.200;11.532;2023-06-14T23:43:33;20.10;49.10
4960;DHT22;2495;48.200;11.532;2023-06-14T23:48:35;20.00;49.40
4960;DHT22;2495;48.200;11.532;2023-06-14T23:53:36;20.00;49.40
4960;DHT22;2495;48.200;11.532;2023-06-14T23:58:38;19.90;49.50
